Time;durP1;ratioP1;P1;durP2;ratioP2;P2;SDS_P1;SDS_P2;PMS_P1;PMS_P2;Temp;Humidity;BMP_temperature;BMP_pressure;BME280_temperature;BME280_humidity;BME280_pressure;Samples;Min_cycle;Max_cycle;Signal;HPM_P1;HPM_P2
2022/04/30 00:00:40;;;;;;;0.08;0.08;;;10.70;99.90;12.80;88037.00;;;;5072048;28;20201;-72
2022/04/30 00:03:09;;;;;;;0.10;0.10;;;10.80;99.90;12.80;88037.00;;;;5085208;28;20197;-72
2022/04/30 00:05:37;;;;;;;0.10;0.10;;;10.50;1.00;12.80;88037.00;;;;5071989;28;20209;-72
2022/04/30 00:08:06;;;;;;;0.10;0.10;;;10.60;1.00;12.80;88037.00;;;;5085079;28;20205;-72
2022/04/30 00:10:37;;;;;;;0.10;0.10;;;10.60;1.00;12.80;88037.00;;;;5092230;28;20193;-72
2022/04/30 00:13:10;;;;;;;0.10;0.10;;;10.60;1.00;12.80;88037.00;;;;5110723;28;20263;-73
2022/04/30 00:15:38;;;;;;;0.10;0.10;;;10.60;1.00;12.80;88037.00;;;;5071448;28;20301;-72
2022/04/30 00:18:08;;;;;;;0.05;0.05;;;10.70;1.00;12.80;88037.00;;;;5088680;28;20218;-72
2022/04/30 00:20:37;;;;;;;0.10;0.10;;;10.60;1.00;12.80;88037.00;;;;5097935;28;20553;-72
2022/04/30 00:23:19;;;;;;;0.05;0.05;;;10.60;1.00;12.80;88037.00;;;;5076990;28;20292;-71
2022/04/30 00:25:51;;;;;;;0.10;0.10;;;10.70;1.00;12.80;88037.00;;;;5052107;28;20214;-72
2022/04/30 00:28:24;;;;;;;0.10;0.10;;;10.50;1.00;12.80;88037.00;;;;5070580;28;20211;-72
2022/04/30 00:30:54;;;;;;;0.10;0.10;;;10.60;1.00;12.80;88037.00;;;;5072524;28;20190;-71
2022/04/30 00:33:23;;;;;;;0.10;0.10;;;10.70;99.90;12.80;88037.00;;;;5070207;28;20232;-72
2022/04/30 00:35:52;;;;;;;0.10;0.10;;;10.40;1.00;12.80;88037.00;;;;5075333;28;20224;-71
2022/04/30 00:38:20;;;;;;;0.10;0.10;;;10.40;1.00;12.80;88037.00;;;;5073700;28;20217;-72
2022/04/30 00:40:48;;;;;;;0.10;0.10;;;10.40;1.00;12.80;88037.00;;;;5078869;28;20209;-72
2022/04/30 00:43:16;;;;;;;0.10;0.10;;;10.50;1.00;12.80;88037.00;;;;5096707;28;20262;-72
2022/04/30 00:45:51;;;;;;;0.10;0.10;;;10.60;1.00;12.80;88037.00;;;;5082011;28;20706;-72
2022/04/30 00:48:19;;;;;;;0.00;0.00;;;10.80;1.00;12.80;88037.00;;;;5079213;28;20201;-73
2022/04/30 00:50:48;;;;;;;0.10;0.10;;;10.90;1.00;12.80;88037.00;;;;5078646;28;20247;-72
2022/04/30 00:53:19;;;;;;;0.10;0.10;;;10.90;1.00;12.80;88037.00;;;;5079812;28;20182;-72
2022/04/30 00:55:49;;;;;;;0.10;0.10;;;10.80;1.00;12.80;88037.00;;;;5088822;28;20221;-72
2022/04/30 00:58:21;;;;;;;0.10;0.10;;;10.80;1.00;12.80;88037.00;;;;5097025;28;20224;-73
2022/04/30 01:00:51;;;;;;;0.08;0.08;;;10.80;1.00;12.80;88037.00;;;;5097104;28;20189;-73
2022/04/30 01:03:45;;;;;;;0.10;0.10;;;10.90;1.00;12.80;88037.00;;;;5089004;28;20692;-73
2022/04/30 01:06:13;;;;;;;0.03;0.03;;;10.80;1.00;12.80;88037.00;;;;5092777;28;20727;-71
2022/04/30 01:08:41;;;;;;;0.10;0.10;;;10.60;1.00;12.80;88037.00;;;;5075216;28;20687;-73
2022/04/30 01:11:09;;;;;;;0.10;0.10;;;10.50;1.00;12.80;88037.00;;;;5074660;28;20656;-73
2022/04/30 01:13:38;;;;;;;0.10;0.10;;;10.40;1.00;12.80;88037.00;;;;5080677;28;20258;-73
2022/04/30 01:16:09;;;;;;;0.00;0.00;;;10.50;1.00;12.80;88037.00;;;;5094628;28;20635;-73
2022/04/30 01:18:38;;;;;;;0.00;0.00;;;10.40;1.00;12.80;88037.00;;;;5073813;28;20571;-72
2022/04/30 01:21:12;;;;;;;0.10;0.10;;;10.20;1.00;12.80;88037.00;;;;5075225;28;20197;-72
2022/04/30 01:23:44;;;;;;;0.00;0.00;;;10.10;1.00;12.80;88037.00;;;;5071446;28;20211;-72
2022/04/30 01:26:14;;;;;;;0.10;0.10;;;9.90;1.00;12.80;88037.00;;;;5074275;28;20251;-72
2022/04/30 01:28:45;;;;;;;0.00;0.00;;;9.80;1.00;12.80;88037.00;;;;5074773;28;20193;-73
2022/04/30 01:39:31;;;;;;;0.10;0.10;;;9.90;56.10;12.80;88037.00;;;;5055892;28;20209;-73
2022/04/30 01:42:11;;;;;;;0.10;0.10;;;9.90;57.20;12.80;88037.00;;;;5080882;28;20204;-73
2022/04/30 01:44:40;;;;;;;0.10;0.10;;;10.10;14.30;12.80;88037.00;;;;5079973;28;20702;-73
2022/04/30 01:47:09;;;;;;;0.10;0.10;;;10.00;1.00;12.80;88037.00;;;;5093842;28;20731;-73
2022/04/30 01:49:37;;;;;;;0.10;0.10;;;9.90;1.00;12.80;88037.00;;;;5093860;28;20189;-72
2022/04/30 01:52:08;;;;;;;0.10;0.10;;;9.90;1.00;12.80;88037.00;;;;5076520;28;20720;-72
2022/04/30 01:54:37;;;;;;;0.10;0.10;;;9.90;1.00;12.80;88037.00;;;;5077424;28;20205;-73
2022/04/30 01:57:06;;;;;;;0.00;0.00;;;9.80;1.00;12.80;88037.00;;;;5084269;28;20233;-73
2022/04/30 01:59:34;;;;;;;0.10;0.10;;;9.80;1.00;12.80;88037.00;;;;5064679;28;20226;-73
2022/04/30 02:02:03;;;;;;;0.10;0.10;;;9.80;1.00;12.80;88037.00;;;;5066745;28;20204;-73
2022/04/30 02:04:34;;;;;;;0.10;0.10;;;9.90;1.00;12.80;88037.00;;;;5073353;28;20553;-72
2022/04/30 02:07:04;;;;;;;0.10;0.10;;;10.00;1.00;12.80;88037.00;;;;5072973;28;20205;-73
2022/04/30 02:09:33;;;;;;;0.10;0.10;;;10.00;1.00;12.80;88037.00;;;;5072468;28;20189;-73
2022/04/30 02:12:04;;;;;;;0.10;0.10;;;9.90;1.00;12.80;88037.00;;;;5072902;28;20194;-72
2022/04/30 02:14:35;;;;;;;0.10;0.10;;;9.80;1.00;12.80;88037.00;;;;5073139;28;20224;-73
2022/04/30 02:17:06;;;;;;;0.10;0.10;;;9.80;31.80;12.80;88037.00;;;;5072744;28;20190;-72
2022/04/30 02:22:19;;;;;;;0.10;0.10;;;9.80;70.10;12.80;88037.00;;;;5087314;28;20197;-72
2022/04/30 02:24:47;;;;;;;0.10;0.10;;;9.80;90.00;12.80;88037.00;;;;5087681;28;20694;-73
2022/04/30 02:27:18;;;;;;;0.10;0.10;;;9.80;30.70;12.80;88037.00;;;;5070183;28;20553;-72
2022/04/30 02:29:46;;;;;;;0.10;0.10;;;9.70;99.90;12.80;88037.00;;;;5072792;28;20259;-72
2022/04/30 02:32:14;;;;;;;0.10;0.10;;;9.50;99.90;12.80;88037.00;;;;5072366;28;20647;-72
2022/04/30 02:34:41;;;;;;;0.10;0.10;;;9.50;99.90;12.80;88037.00;;;;5076508;28;20254;-72
2022/04/30 02:37:13;;;;;;;0.10;0.10;;;9.70;99.90;12.80;88037.00;;;;5074024;28;20289;-72
2022/04/30 02:39:41;;;;;;;0.10;0.10;;;9.80;95.60;12.80;88037.00;;;;5072599;28;20221;-72
2022/04/30 02:42:10;;;;;;;0.10;0.10;;;9.70;45.40;12.80;88037.00;;;;5072474;28;20190;-72
2022/04/30 02:44:39;;;;;;;0.10;0.10;;;9.60;29.80;12.80;88037.00;;;;5080612;28;20596;-71
2022/04/30 02:47:08;;;;;;;0.10;0.10;;;9.70;17.80;12.80;88037.00;;;;5071902;28;20650;-72
2022/04/30 02:49:38;;;;;;;0.10;0.10;;;9.60;1.00;12.80;88037.00;;;;5072423;28;20205;-72
2022/04/30 02:52:06;;;;;;;0.10;0.10;;;9.40;55.60;12.80;88037.00;;;;5071970;28;20205;-73
2022/04/30 02:54:34;;;;;;;0.10;0.10;;;9.40;28.00;12.80;88037.00;;;;5076393;28;20723;-73
2022/04/30 02:57:02;;;;;;;0.00;0.00;;;9.50;8.30;12.80;88037.00;;;;5092311;28;20200;-72
2022/04/30 03:02:37;;;;;;;0.10;0.10;;;9.40;57.60;12.80;88037.00;;;;5072534;28;20193;-72
2022/04/30 03:05:07;;;;;;;0.03;0.03;;;9.00;99.90;12.80;88037.00;;;;5080685;28;20213;-72
2022/04/30 03:07:37;;;;;;;0.10;0.10;;;8.90;99.90;12.80;88037.00;;;;5086968;28;20198;-72
2022/04/30 03:10:07;;;;;;;0.10;0.10;;;8.90;99.90;12.80;88037.00;;;;5092297;28;20201;-72
2022/04/30 03:12:36;;;;;;;0.10;0.10;;;8.70;99.90;12.80;88037.00;;;;5091827;28;20196;-72
2022/04/30 03:15:05;;;;;;;0.10;0.10;;;8.70;99.90;12.80;88037.00;;;;5081200;28;20241;-72
2022/04/30 03:23:06;;;;;;;0.10;0.10;;;8.40;99.90;12.80;88037.00;;;;5070778;28;20205;-70
2022/04/30 03:25:34;;;;;;;0.10;0.10;;;8.50;99.90;12.80;88037.00;;;;5083371;28;20584;-71
2022/04/30 03:28:02;;;;;;;0.10;0.10;;;8.60;1.00;12.80;88037.00;;;;5092019;28;20192;-72
2022/04/30 03:30:30;;;;;;;0.10;0.10;;;8.70;1.00;12.80;88037.00;;;;5071588;28;20854;-72
2022/04/30 03:32:58;;;;;;;0.10;0.10;;;8.60;1.00;12.80;88037.00;;;;5091939;28;20625;-72
2022/04/30 03:35:27;;;;;;;0.10;0.10;;;8.70;1.00;12.80;88037.00;;;;5081610;28;20279;-71
2022/04/30 03:37:55;;;;;;;0.10;0.10;;;8.80;1.00;12.80;88037.00;;;;5071838;28;20189;-71
2022/04/30 03:40:23;;;;;;;0.10;0.10;;;8.90;99.90;12.80;88037.00;;;;5072829;28;20222;-72
2022/04/30 03:42:51;;;;;;;0.00;0.00;;;8.90;99.90;12.80;88037.00;;;;5089104;28;20189;-72
2022/04/30 03:45:19;;;;;;;0.10;0.10;;;8.90;99.90;12.80;88037.00;;;;5075702;28;20220;-70
2022/04/30 03:47:47;;;;;;;0.10;0.10;;;8.70;1.00;12.80;88037.00;;;;5071643;28;20198;-70
2022/04/30 03:50:15;;;;;;;0.10;0.10;;;8.80;1.00;12.80;88037.00;;;;5071878;28;20201;-71
2022/04/30 03:52:45;;;;;;;0.03;0.03;;;8.80;1.00;12.80;88037.00;;;;5071949;28;20538;-70
2022/04/30 03:55:14;;;;;;;0.10;0.10;;;8.90;99.90;12.80;88037.00;;;;5070961;28;20221;-70
2022/04/30 03:57:43;;;;;;;0.10;0.10;;;8.80;99.90;12.80;88037.00;;;;5071475;28;20212;-71
2022/04/30 04:00:13;;;;;;;0.00;0.00;;;8.90;99.90;12.80;88037.00;;;;5071649;28;20218;-70
2022/04/30 04:02:43;;;;;;;0.10;0.10;;;8.80;99.90;12.80;88037.00;;;;5065893;28;20274;-70
2022/04/30 04:05:13;;;;;;;0.05;0.05;;;8.70;1.00;12.80;88037.00;;;;5072136;28;20258;-70
2022/04/30 04:07:42;;;;;;;0.10;0.10;;;8.80;1.00;12.80;88037.00;;;;5072892;28;20221;-70
2022/04/30 04:10:12;;;;;;;0.10;0.10;;;9.00;1.00;12.80;88037.00;;;;5073527;28;20731;-70
2022/04/30 04:12:41;;;;;;;0.10;0.10;;;9.10;99.90;12.80;88037.00;;;;5072122;28;20194;-70
2022/04/30 04:17:56;;;;;;;0.10;0.10;;;9.10;99.90;12.80;88037.00;;;;5077228;28;20675;-70
2022/04/30 04:20:25;;;;;;;0.10;0.10;;;9.30;99.90;12.80;88037.00;;;;5072257;28;20221;-70
2022/04/30 04:22:56;;;;;;;0.10;0.10;;;9.30;99.90;12.80;88037.00;;;;5072686;28;20198;-70
2022/04/30 04:28:11;;;;;;;0.10;0.10;;;9.10;99.90;12.80;88037.00;;;;5073234;28;20667;-70
2022/04/30 04:30:39;;;;;;;0.10;0.10;;;9.30;99.90;12.80;88037.00;;;;5073323;28;20201;-70
2022/04/30 04:33:07;;;;;;;0.10;0.10;;;9.30;99.90;12.80;88037.00;;;;5073930;28;20197;-70
2022/04/30 04:35:35;;;;;;;0.10;0.10;;;9.40;99.90;12.80;88037.00;;;;5086879;28;20209;-70
2022/04/30 04:38:03;;;;;;;0.08;0.08;;;9.50;99.90;12.80;88037.00;;;;5095145;28;20189;-70
2022/04/30 04:40:32;;;;;;;0.10;0.10;;;9.50;99.90;12.80;88037.00;;;;5082974;28;20216;-70
2022/04/30 04:43:00;;;;;;;0.10;0.10;;;9.40;99.90;12.80;88037.00;;;;5093582;28;20250;-71
2022/04/30 04:45:28;;;;;;;0.00;0.00;;;9.40;99.90;12.80;88037.00;;;;5073851;28;20221;-70
2022/04/30 04:47:57;;;;;;;0.10;0.10;;;9.30;99.90;12.80;88037.00;;;;5074485;28;20193;-71
2022/04/30 04:50:25;;;;;;;0.10;0.10;;;9.30;99.90;12.80;88037.00;;;;5076908;28;20197;-71
2022/04/30 04:52:55;;;;;;;0.10;0.10;;;9.30;1.00;12.80;88037.00;;;;5074221;28;20244;-71
2022/04/30 04:55:24;;;;;;;0.10;0.10;;;9.40;99.90;12.80;88037.00;;;;5068038;28;20218;-71
2022/04/30 04:57:53;;;;;;;0.10;0.10;;;9.40;99.90;12.80;88037.00;;;;5075304;28;20560;-70
2022/04/30 05:00:22;;;;;;;0.10;0.10;;;9.30;99.90;12.80;88037.00;;;;5074674;28;20635;-71
2022/04/30 05:02:50;;;;;;;0.10;0.10;;;9.40;99.90;12.80;88037.00;;;;5074489;28;20614;-70
2022/04/30 05:05:18;;;;;;;0.05;0.05;;;9.30;99.90;12.80;88037.00;;;;5074662;28;20230;-70
2022/04/30 05:07:46;;;;;;;0.10;0.10;;;9.40;99.90;12.80;88037.00;;;;5077733;28;20594;-71
2022/04/30 05:10:15;;;;;;;0.10;0.10;;;9.40;99.90;12.80;88037.00;;;;5093852;28;20197;-71
2022/04/30 05:12:46;;;;;;;0.10;0.10;;;9.40;99.90;12.80;88037.00;;;;5086712;28;20198;-71
2022/04/30 05:15:15;;;;;;;0.10;0.10;;;9.60;99.90;12.80;88037.00;;;;5069283;28;20257;-71
2022/04/30 05:17:43;;;;;;;0.10;0.10;;;9.80;99.90;12.80;88037.00;;;;5073705;28;20216;-71
2022/04/30 05:20:12;;;;;;;0.10;0.10;;;9.90;99.90;12.80;88037.00;;;;5071972;28;20221;-70
2022/04/30 05:23:00;;;;;;;0.10;0.10;;;10.00;99.90;12.80;88037.00;;;;5071172;28;20214;-71
2022/04/30 05:25:28;;;;;;;0.10;0.10;;;10.00;99.90;12.80;88037.00;;;;5084770;28;20224;-70
2022/04/30 05:27:56;;;;;;;0.10;0.10;;;10.10;99.90;12.80;88037.00;;;;5094004;28;20197;-71
2022/04/30 05:30:26;;;;;;;0.10;0.10;;;10.20;99.90;12.80;88037.00;;;;5079094;28;20209;-71
2022/04/30 05:32:53;;;;;;;0.10;0.10;;;10.20;99.90;12.80;88037.00;;;;5083657;28;20251;-70
2022/04/30 05:35:22;;;;;;;0.10;0.10;;;10.30;61.50;12.80;88037.00;;;;5074011;28;20259;-71
2022/04/30 05:37:50;;;;;;;0.10;0.10;;;10.30;29.00;12.80;88037.00;;;;5073574;28;20198;-70
2022/04/30 05:40:19;;;;;;;0.10;0.10;;;10.30;18.30;12.80;88037.00;;;;5073991;28;20287;-70
2022/04/30 05:42:47;;;;;;;0.10;0.10;;;10.30;1.00;12.80;88037.00;;;;5079505;28;20198;-70
2022/04/30 05:45:15;;;;;;;0.10;0.10;;;10.40;1.00;12.80;88037.00;;;;5083895;28;20270;-70
2022/04/30 05:47:44;;;;;;;0.00;0.00;;;10.40;1.00;12.80;88037.00;;;;5074433;28;20196;-70
2022/04/30 05:50:12;;;;;;;0.10;0.10;;;10.40;1.00;12.80;88037.00;;;;5075726;28;20194;-70
2022/04/30 05:52:40;;;;;;;0.10;0.10;;;10.30;1.00;12.80;88037.00;;;;5087025;28;20528;-71
2022/04/30 05:55:09;;;;;;;0.10;0.10;;;10.30;1.00;12.80;88037.00;;;;5075694;28;20644;-71
2022/04/30 05:57:38;;;;;;;0.10;0.10;;;10.30;1.00;12.80;88037.00;;;;5072996;28;20190;-71
2022/04/30 06:00:08;;;;;;;0.10;0.10;;;10.30;1.00;12.80;88037.00;;;;5073078;28;20237;-71
2022/04/30 06:02:36;;;;;;;0.10;0.10;;;10.40;1.00;12.80;88037.00;;;;5074283;28;20240;-71
2022/04/30 06:05:08;;;;;;;0.10;0.10;;;10.40;1.00;12.80;88037.00;;;;5072768;28;20237;-71
2022/04/30 06:07:36;;;;;;;0.10;0.10;;;10.40;1.00;12.80;88037.00;;;;5073143;28;20571;-70
2022/04/30 06:10:06;;;;;;;0.10;0.10;;;10.40;1.00;12.80;88037.00;;;;5072504;28;20209;-72
2022/04/30 06:12:35;;;;;;;0.10;0.10;;;10.40;1.00;12.80;88037.00;;;;5072229;28;20671;-71
2022/04/30 06:15:04;;;;;;;0.10;0.10;;;10.40;1.00;12.80;88037.00;;;;5073422;28;20212;-71
2022/04/30 06:17:32;;;;;;;0.10;0.10;;;10.30;1.00;12.80;88037.00;;;;5072463;28;20627;-71
2022/04/30 06:20:00;;;;;;;0.10;0.10;;;10.30;1.00;12.80;88037.00;;;;5084480;28;20217;-70
2022/04/30 06:22:29;;;;;;;0.10;0.10;;;10.30;1.00;12.80;88037.00;;;;5093132;28;20254;-71
2022/04/30 06:24:57;;;;;;;0.10;0.10;;;10.30;1.00;12.80;88037.00;;;;5092345;28;20262;-73
2022/04/30 06:27:26;;;;;;;0.10;0.10;;;10.30;1.00;12.80;88037.00;;;;5073570;28;20279;-72
2022/04/30 06:29:54;;;;;;;0.08;0.08;;;10.30;1.00;12.80;88037.00;;;;5081953;28;20201;-71
2022/04/30 06:32:22;;;;;;;0.10;0.10;;;10.30;1.00;12.80;88037.00;;;;5061509;28;20599;-71
2022/04/30 06:34:50;;;;;;;0.08;0.08;;;10.30;1.00;12.80;88037.00;;;;5072572;28;20214;-71
2022/04/30 06:37:18;;;;;;;0.10;0.10;;;10.40;1.00;12.80;88037.00;;;;5072542;28;20277;-72
2022/04/30 06:39:47;;;;;;;0.10;0.10;;;10.40;1.00;12.80;88037.00;;;;5073529;28;20201;-73
2022/04/30 06:42:15;;;;;;;0.10;0.10;;;10.60;1.00;12.80;88037.00;;;;5066320;28;20737;-72
2022/04/30 06:44:43;;;;;;;0.10;0.10;;;10.70;1.00;12.80;88037.00;;;;5077310;28;20214;-71
2022/04/30 06:47:12;;;;;;;0.10;0.10;;;10.70;1.00;12.80;88037.00;;;;5069733;28;20201;-72
2022/04/30 06:49:40;;;;;;;0.10;0.10;;;10.80;1.00;12.80;88037.00;;;;5073420;28;20206;-71
2022/04/30 06:52:09;;;;;;;0.10;0.10;;;10.80;1.00;12.80;88037.00;;;;5072871;28;20197;-72
2022/04/30 06:57:28;;;;;;;0.10;0.10;;;11.00;1.00;12.80;88037.00;;;;5072249;28;20206;-73
2022/04/30 06:59:57;;;;;;;0.10;0.10;;;11.10;1.00;12.80;88037.00;;;;5072341;28;20190;-72
2022/04/30 07:02:28;;;;;;;0.10;0.10;;;11.10;1.00;12.80;88037.00;;;;5071975;28;20197;-71
2022/04/30 07:04:57;;;;;;;0.10;0.10;;;11.10;1.00;12.80;88037.00;;;;5072366;28;20216;-72
2022/04/30 07:07:24;;;;;;;0.10;0.10;;;11.10;1.00;12.80;88037.00;;;;5072259;28;20194;-72
2022/04/30 07:09:52;;;;;;;0.10;0.10;;;11.10;1.00;12.80;88037.00;;;;5072409;28;20559;-71
2022/04/30 07:12:20;;;;;;;0.10;0.10;;;11.20;1.00;12.80;88037.00;;;;5072307;28;20280;-71
2022/04/30 07:14:50;;;;;;;0.10;0.10;;;11.30;1.00;12.80;88037.00;;;;5072089;28;20205;-71
2022/04/30 07:17:18;;;;;;;0.10;0.10;;;11.40;99.90;12.80;88037.00;;;;5072135;28;20734;-71
2022/04/30 07:19:46;;;;;;;0.10;0.10;;;11.40;99.90;12.80;88037.00;;;;5072303;28;20190;-72
2022/04/30 07:22:14;;;;;;;0.08;0.08;;;11.40;99.90;12.80;88037.00;;;;5072005;28;20235;-72
2022/04/30 07:24:42;;;;;;;0.10;0.10;;;11.40;99.90;12.80;88037.00;;;;5072287;28;20209;-72
2022/04/30 07:27:11;;;;;;;0.10;0.10;;;11.40;99.90;12.80;88037.00;;;;5071737;28;20642;-72
2022/04/30 07:29:39;;;;;;;0.10;0.10;;;11.40;99.90;12.80;88037.00;;;;5072261;28;20190;-72
2022/04/30 07:32:09;;;;;;;0.10;0.10;;;11.40;99.90;12.80;88037.00;;;;5072030;28;20259;-73
2022/04/30 07:34:39;;;;;;;0.00;0.00;;;11.60;99.90;12.80;88037.00;;;;5072305;28;20216;-73
2022/04/30 07:37:10;;;;;;;0.10;0.10;;;11.70;99.90;12.80;88037.00;;;;5088323;28;20683;-72
2022/04/30 07:39:40;;;;;;;0.10;0.10;;;11.80;99.90;12.80;88037.00;;;;5072855;28;20247;-73
2022/04/30 07:42:10;;;;;;;0.10;0.10;;;11.80;99.90;12.80;88037.00;;;;5072123;28;20221;-71
2022/04/30 07:44:39;;;;;;;0.10;0.10;;;12.00;99.90;12.80;88037.00;;;;5072215;28;20216;-72
2022/04/30 07:47:09;;;;;;;0.10;0.10;;;12.00;99.90;12.80;88037.00;;;;5071956;28;20205;-72
2022/04/30 07:49:37;;;;;;;0.08;0.08;;;12.10;1.00;12.80;88037.00;;;;5072650;28;20268;-72
2022/04/30 07:52:06;;;;;;;0.08;0.08;;;12.20;1.00;12.80;88037.00;;;;5072400;28;20201;-71
2022/04/30 07:54:34;;;;;;;0.10;0.10;;;12.20;1.00;12.80;88037.00;;;;5078844;28;20233;-72
2022/04/30 07:57:03;;;;;;;0.10;0.10;;;12.30;1.00;12.80;88037.00;;;;5078035;28;20189;-71
2022/04/30 07:59:31;;;;;;;0.10;0.10;;;12.40;1.00;12.80;88037.00;;;;5074628;28;20220;-71
2022/04/30 08:01:59;;;;;;;0.10;0.10;;;12.50;1.00;12.80;88037.00;;;;5072601;28;20221;-71
2022/04/30 08:04:28;;;;;;;0.10;0.10;;;12.50;1.00;12.80;88037.00;;;;5072097;28;20209;-72
2022/04/30 08:06:56;;;;;;;0.10;0.10;;;12.50;1.00;12.80;88037.00;;;;5071942;28;20185;-72
2022/04/30 08:09:24;;;;;;;0.10;0.10;;;12.70;99.90;12.80;88037.00;;;;5072777;28;20198;-72
2022/04/30 08:11:52;;;;;;;0.10;0.10;;;12.60;99.90;12.80;88037.00;;;;5076064;28;20204;-72
2022/04/30 08:14:20;;;;;;;0.00;0.00;;;12.70;99.90;12.80;88037.00;;;;5076105;28;20615;-72
2022/04/30 08:16:48;;;;;;;0.10;0.10;;;12.80;99.90;12.80;88037.00;;;;5084278;28;20198;-72
2022/04/30 08:19:16;;;;;;;0.10;0.10;;;13.00;1.00;12.80;88037.00;;;;5078347;28;20193;-71
2022/04/30 08:21:46;;;;;;;0.00;0.00;;;13.10;1.00;12.80;88037.00;;;;5078188;28;20226;-71
2022/04/30 08:24:34;;;;;;;0.10;0.10;;;13.20;1.00;12.80;88037.00;;;;5076762;28;20252;-71
2022/04/30 08:27:02;;;;;;;0.10;0.10;;;13.40;69.80;12.80;88037.00;;;;5075943;28;20213;-71
2022/04/30 08:29:30;;;;;;;0.10;0.10;;;13.70;1.00;12.80;88037.00;;;;5075917;28;20551;-72
2022/04/30 08:31:58;;;;;;;0.05;0.05;;;13.80;99.90;12.80;88037.00;;;;5075711;28;20239;-72
2022/04/30 08:34:26;;;;;;;0.08;0.08;;;13.90;1.00;12.80;88037.00;;;;5091576;28;20220;-71
2022/04/30 08:36:55;;;;;;;0.03;0.03;;;14.00;99.90;12.80;88037.00;;;;5075401;28;20603;-71
2022/04/30 08:39:24;;;;;;;0.10;0.10;;;14.00;51.90;12.80;88037.00;;;;5076297;28;20197;-71
2022/04/30 08:41:52;;;;;;;0.10;0.10;;;14.10;1.00;12.80;88037.00;;;;5076400;28;20209;-71
2022/04/30 08:44:20;;;;;;;0.10;0.10;;;14.30;99.90;12.80;88037.00;;;;5077347;28;20218;-71
2022/04/30 08:46:48;;;;;;;0.10;0.10;;;14.50;1.00;12.80;88037.00;;;;5078629;28;20716;-71
2022/04/30 08:49:16;;;;;;;0.10;0.10;;;14.70;1.00;12.80;88037.00;;;;5080106;28;20245;-72
2022/04/30 08:51:45;;;;;;;0.10;0.10;;;14.80;99.90;12.80;88037.00;;;;5079740;28;20565;-72
2022/04/30 08:54:14;;;;;;;0.00;0.00;;;15.00;1.00;12.80;88037.00;;;;5079137;28;20210;-72
2022/04/30 08:56:53;;;;;;;0.10;0.10;;;15.10;1.00;12.80;88037.00;;;;5078225;28;20640;-71
2022/04/30 08:59:21;;;;;;;0.10;0.10;;;15.20;99.90;12.80;88037.00;;;;5079502;28;20193;-72
2022/04/30 09:01:52;;;;;;;0.10;0.10;;;15.40;1.00;12.80;88037.00;;;;5078530;28;20213;-71
2022/04/30 09:04:21;;;;;;;0.03;0.03;;;15.60;99.90;12.80;88037.00;;;;5079275;28;20256;-71
2022/04/30 09:06:52;;;;;;;0.10;0.10;;;15.70;99.90;12.80;88037.00;;;;5078326;28;20190;-72
2022/04/30 09:09:28;;;;;;;0.00;0.00;;;15.80;1.00;12.80;88037.00;;;;5076005;28;20337;-72
2022/04/30 09:12:07;;;;;;;0.00;0.00;;;15.90;2.60;12.80;88037.00;;;;5074544;28;20193;-71
2022/04/30 09:14:35;;;;;;;0.10;0.10;;;15.90;1.00;313.40;52573.00;;;;5074706;28;20617;-73
2022/04/30 09:17:07;;;;;;;0.10;0.10;;;16.00;1.00;313.10;52593.00;;;;5074377;28;20185;-72
2022/04/30 09:19:47;;;;;;;0.10;0.10;;;16.10;99.90;313.00;52605.00;;;;5074761;28;20186;-72
2022/04/30 09:22:16;;;;;;;0.10;0.10;;;16.10;1.00;313.10;52589.00;;;;5073072;28;20221;-71
2022/04/30 09:24:50;;;;;;;0.10;0.10;;;16.10;1.00;313.90;52533.00;;;;5075318;28;20556;-72
2022/04/30 09:27:44;;;;;;;0.00;0.00;;;16.40;1.00;314.10;52513.00;;;;5074863;28;20190;-71
2022/04/30 09:30:17;;;;;;;0.05;0.05;;;16.50;1.00;314.10;52514.00;;;;5074802;28;20189;-73
2022/04/30 09:32:45;;;;;;;0.10;0.10;;;16.50;1.00;314.20;52504.00;;;;5074462;28;20205;-72
2022/04/30 09:38:06;;;;;;;0.05;0.05;;;16.50;1.00;314.20;52505.00;;;;5074487;28;20192;-72
2022/04/30 09:40:36;;;;;;;0.10;0.10;;;16.60;1.00;314.40;52483.00;;;;5074046;28;20190;-71
2022/04/30 09:43:05;;;;;;;0.08;0.08;;;16.70;1.00;314.50;52474.00;;;;5074149;28;20221;-71
2022/04/30 09:45:35;;;;;;;0.10;0.10;;;16.70;1.00;315.10;52233.00;;;;5073864;28;20270;-71
2022/04/30 09:53:56;;;;;;;0.00;0.00;;;16.80;1.00;315.50;52195.00;;;;5073995;28;20221;-72
2022/04/30 09:54:00;;;;;;;0.00;0.00;;;17.10;99.90;316.00;52160.00;;;;5074757;28;20200;-72
2022/04/30 09:56:35;;;;;;;0.10;0.10;;;17.20;99.90;315.60;52186.00;;;;5073958;28;20194;-72
2022/04/30 09:59:06;;;;;;;0.10;0.10;;;17.20;99.90;316.10;52148.00;;;;5074518;28;20239;-72
2022/04/30 10:01:36;;;;;;;0.10;0.10;;;17.30;99.90;316.10;52146.00;;;;5073920;28;20186;-72
2022/04/30 10:04:10;;;;;;;0.05;0.05;;;17.30;99.90;316.30;52130.00;;;;5073761;28;20209;-72
2022/04/30 10:06:43;;;;;;;0.00;0.00;;;17.50;99.90;316.80;52090.00;;;;5073492;28;20189;-72
2022/04/30 10:09:20;;;;;;;0.00;0.00;;;17.60;99.90;316.90;52078.00;;;;5073933;28;20193;-72
2022/04/30 10:12:02;;;;;;;0.00;0.00;;;17.70;99.90;317.20;52058.00;;;;5073696;28;20193;-72
2022/04/30 10:14:51;;;;;;;0.00;0.00;;;17.80;99.90;317.10;52061.00;;;;5074258;28;20595;-73
2022/04/30 10:17:23;;;;;;;0.00;0.00;;;17.90;99.90;317.30;52046.00;;;;5073813;28;20557;-73
2022/04/30 10:20:06;;;;;;;0.00;0.00;;;17.90;99.90;317.40;52038.00;;;;5076247;28;20201;-72
2022/04/30 10:22:35;;;;;;;0.00;0.00;;;17.90;99.90;318.10;51982.00;;;;5075733;28;20267;-72
2022/04/30 10:25:06;;;;;;;0.00;0.00;;;18.20;99.90;318.40;51955.00;;;;5075681;28;20220;-72
2022/04/30 10:27:44;;;;;;;0.00;0.00;;;18.40;99.90;318.10;50183.00;;;;5073158;28;20255;-72
2022/04/30 10:30:23;;;;;;;0.00;0.00;;;18.50;99.90;317.40;50244.00;;;;5073589;28;20558;-72
2022/04/30 10:33:03;;;;;;;0.00;0.00;;;18.50;99.90;317.20;50273.00;;;;5075239;28;20198;-72
2022/04/30 10:35:33;;;;;;;0.00;0.00;;;18.40;99.90;317.60;50272.00;;;;5076471;28;20209;-71
2022/04/30 10:38:13;;;;;;;0.00;0.00;;;18.40;99.90;317.90;50270.00;;;;5075134;28;20201;-71
2022/04/30 10:40:45;;;;;;;0.00;0.00;;;18.60;99.90;318.00;50270.00;;;;5073322;28;20554;-72
2022/04/30 10:43:28;;;;;;;0.00;0.00;;;18.80;99.90;318.20;50262.00;;;;5072887;28;20670;-72
2022/04/30 10:45:56;;;;;;;0.00;0.00;;;18.80;99.90;318.00;50265.00;;;;5073050;28;20240;-71
2022/04/30 10:48:25;;;;;;;0.00;0.00;;;18.80;99.90;318.30;50285.00;;;;5073350;28;20190;-72
2022/04/30 10:51:05;;;;;;;0.00;0.00;;;18.90;99.90;318.60;50271.00;;;;5072882;28;20637;-72
2022/04/30 10:53:35;;;;;;;0.00;0.00;;;19.10;96.30;319.30;50273.00;;;;5073032;28;20205;-72
2022/04/30 10:56:06;;;;;;;0.00;0.00;;;19.20;94.90;319.10;50273.00;;;;5072801;28;20197;-73
2022/04/30 10:58:36;;;;;;;0.00;0.00;;;19.30;85.80;319.30;50314.00;;;;5073498;28;20186;-72
2022/04/30 11:01:12;;;;;;;0.00;0.00;;;19.40;79.40;319.60;50406.00;;;;5073149;28;20194;-72
2022/04/30 11:03:43;;;;;;;0.00;0.00;;;19.60;77.10;319.90;50638.00;;;;5072821;28;20304;-73
2022/04/30 11:06:13;;;;;;;0.03;0.03;;;19.80;73.90;319.80;50698.00;;;;5072607;28;20430;-72
2022/04/30 11:08:58;;;;;;;0.00;0.00;;;19.90;77.40;321.60;51704.00;;;;5073319;28;20220;-72
2022/04/30 11:11:26;;;;;;;0.00;0.00;;;20.00;78.30;322.10;51664.00;;;;5072993;28;20193;-71
2022/04/30 11:14:03;;;;;;;0.00;0.00;;;20.20;90.80;323.00;51596.00;;;;5072070;28;20251;-73
2022/04/30 11:16:32;;;;;;;0.00;0.00;;;20.40;90.80;323.70;51547.00;;;;5072720;28;20189;-72
2022/04/30 11:19:05;;;;;;;0.00;0.00;;;20.70;86.70;323.00;51596.00;;;;5073254;28;20188;-72
2022/04/30 11:21:35;;;;;;;0.00;0.00;;;20.80;80.70;322.70;51610.00;;;;5084542;28;20265;-72
2022/04/30 11:24:04;;;;;;;0.00;0.00;;;20.60;94.10;321.80;51679.00;;;;5072173;28;20234;-72
2022/04/30 11:26:37;;;;;;;0.00;0.00;;;20.30;99.90;322.20;51649.00;;;;5072640;28;20267;-71
2022/04/30 11:29:10;;;;;;;0.00;0.00;;;20.40;99.90;322.10;51661.00;;;;5072494;28;20257;-72
2022/04/30 11:31:39;;;;;;;0.00;0.00;;;20.40;92.90;321.90;51672.00;;;;5072518;28;20197;-72
2022/04/30 11:34:11;;;;;;;0.00;0.00;;;20.30;99.90;322.00;51662.00;;;;5073967;28;20222;-72
2022/04/30 11:36:41;;;;;;;0.00;0.00;;;20.30;99.90;322.20;51651.00;;;;5076592;28;20236;-72
2022/04/30 11:39:10;;;;;;;0.00;0.00;;;20.30;99.90;323.00;51589.00;;;;5075922;28;20197;-72
2022/04/30 11:41:39;;;;;;;0.00;0.00;;;20.50;99.90;323.10;51580.00;;;;5073829;28;20285;-72
2022/04/30 11:44:11;;;;;;;0.00;0.00;;;20.70;99.90;322.90;51600.00;;;;5071913;28;20222;-71
2022/04/30 11:46:41;;;;;;;0.00;0.00;;;20.70;99.90;322.70;51614.00;;;;5072738;28;20193;-72